Time,TemperatureF,DewpointF,PressureIn,WindDirection,WindDirectionDegrees,WindSpeedMPH,WindSpeedGustMPH,Humidity,HourlyPrecipIn,Conditions,Clouds,dailyrainin,SoftwareType,DateUTC
2013-07-10 00:01:00,86.7,69.1,29.97,South,186,0.0,0.0,56,0.00,,---,0.00,VWS V14.00,2013-07-10 05:01:00,
2013-07-10 00:06:00,86.6,69.1,29.97,South,186,0.0,1.0,56,0.00,,---,0.00,VWS V14.00,2013-07-10 05:06:00,
2013-07-10 00:11:00,86.5,69.0,29.97,SSW,193,0.0,6.0,56,0.00,,---,0.00,VWS V14.00,2013-07-10 05:11:00,
2013-07-10 00:16:00,86.4,69.4,29.97,SSE,165,0.0,0.0,57,0.00,,---,0.00,VWS V14.00,2013-07-10 05:16:00,
2013-07-10 00:21:00,86.3,68.8,29.97,South,180,0.0,0.0,56,0.00,,---,0.00,VWS V14.00,2013-07-10 05:21:00,
2013-07-10 00:26:00,86.2,68.7,29.97,South,182,0.0,0.0,56,0.00,,---,0.00,VWS V14.00,2013-07-10 05:26:00,
2013-07-10 00:31:00,86.1,69.1,29.98,South,184,0.0,0.0,57,0.00,,---,0.00,VWS V14.00,2013-07-10 05:31:00,
2013-07-10 00:36:00,85.8,68.8,29.98,South,184,1.0,1.0,57,0.00,,---,0.00,VWS V14.00,2013-07-10 05:36:00,
2013-07-10 00:42:00,85.6,68.6,29.98,South,185,0.0,0.0,57,0.00,,---,0.00,VWS V14.00,2013-07-10 05:42:00,
2013-07-10 00:48:00,85.5,68.5,29.97,South,186,0.0,0.0,57,0.00,,---,0.00,VWS V14.00,2013-07-10 05:48:00,
2013-07-10 00:53:00,85.4,68.4,29.97,South,190,0.0,4.0,57,0.00,,---,0.00,VWS V14.00,2013-07-10 05:53:00,
2013-07-10 00:59:00,85.4,68.4,29.98,South,191,0.0,0.0,57,0.00,,---,0.00,VWS V14.00,2013-07-10 05:59:00,
2013-07-10 01:04:00,85.3,68.3,29.98,South,191,0.0,0.0,57,0.00,,---,0.00,VWS V14.00,2013-07-10 06:04:00,
2013-07-10 01:10:00,85.2,68.3,29.98,South,186,0.0,3.0,57,0.00,,---,0.00,VWS V14.00,2013-07-10 06:10:00,
2013-07-10 01:16:00,85.0,68.6,29.98,South,185,0.0,3.0,58,0.00,,---,0.00,VWS V14.00,2013-07-10 06:16:00,
2013-07-10 01:21:00,85.0,68.1,29.98,South,187,0.0,0.0,57,0.00,,---,0.00,VWS V14.00,2013-07-10 06:21:00,
2013-07-10 01:27:00,85.0,68.1,29.98,South,180,0.0,0.0,57,0.00,,---,0.00,VWS V14.00,2013-07-10 06:27:00,
2013-07-10 01:33:00,84.9,68.0,29.98,South,178,0.0,3.0,57,0.00,,---,0.00,VWS V14.00,2013-07-10 06:33:00,
2013-07-10 01:38:00,84.9,67.5,29.98,South,186,2.0,4.0,56,0.00,,---,0.00,VWS V14.00,2013-07-10 06:38:00,
2013-07-10 01:43:00,85.1,67.1,29.97,South,186,1.0,4.0,55,0.00,,---,0.00,VWS V14.00,2013-07-10 06:43:00,
2013-07-10 01:48:00,85.1,67.1,29.97,South,185,0.0,0.0,55,0.00,,---,0.00,VWS V14.00,2013-07-10 06:48:00,
2013-07-10 01:53:00,85.1,67.1,29.97,South,191,0.0,3.0,55,0.00,,---,0.00,VWS V14.00,2013-07-10 06:53:00,
2013-07-10 01:58:00,85.1,66.6,29.97,South,191,0.0,3.0,54,0.00,,---,0.00,VWS V14.00,2013-07-10 06:58:00,
2013-07-10 02:03:00,85.0,66.5,29.97,SSW,192,0.0,4.0,54,0.00,,---,0.00,VWS V14.00,2013-07-10 07:03:00,
2013-07-10 02:08:00,84.9,66.4,29.97,SSW,195,2.0,9.0,54,0.00,,---,0.00,VWS V14.00,2013-07-10 07:08:00,
2013-07-10 02:13:00,84.8,66.3,29.97,SSW,193,0.0,4.0,54,0.00,,---,0.00,VWS V14.00,2013-07-10 07:13:00,
2013-07-10 02:19:00,84.7,66.2,29.97,SSW,192,0.0,0.0,54,0.00,,---,0.00,VWS V14.00,2013-07-10 07:19:00,
2013-07-10 02:20:00,84.6,66.1,29.97,South,191,1.0,4.0,54,0.00,,---,0.00,VWS V14.00,2013-07-10 07:20:00,
2013-07-10 02:25:00,84.5,66.1,29.97,South,188,1.0,6.0,54,0.00,,---,0.00,VWS V14.00,2013-07-10 07:25:00,
2013-07-10 02:31:00,84.4,66.5,29.97,South,188,0.0,4.0,55,0.00,,---,0.00,VWS V14.00,2013-07-10 07:31:00,
2013-07-10 02:37:00,84.2,66.3,29.97,South,189,0.0,4.0,55,0.00,,---,0.00,VWS V14.00,2013-07-10 07:37:00,
2013-07-10 02:42:00,84.2,66.3,29.97,SSW,192,0.0,0.0,55,0.00,,---,0.00,VWS V14.00,2013-07-10 07:42:00,
2013-07-10 02:47:00,84.1,65.7,29.97,South,191,0.0,0.0,54,0.00,,---,0.00,VWS V14.00,2013-07-10 07:47:00,
2013-07-10 02:52:00,84.0,65.6,29.97,South,191,0.0,0.0,54,0.00,,---,0.00,VWS V14.00,2013-07-10 07:52:00,
2013-07-10 02:57:00,83.9,65.5,29.96,SSE,167,2.0,4.0,54,0.00,,---,0.00,VWS V14.00,2013-07-10 07:57:00,
2013-07-10 03:03:00,83.9,65.5,29.96,South,186,0.0,0.0,54,0.00,,---,0.00,VWS V14.00,2013-07-10 08:03:00,
2013-07-10 03:08:00,83.8,65.4,29.96,South,179,0.0,1.0,54,0.00,,---,0.00,VWS V14.00,2013-07-10 08:08:00,
2013-07-10 03:14:00,83.8,65.4,29.95,WSW,243,3.0,3.0,54,0.00,,---,0.00,VWS V14.00,2013-07-10 08:14:00,
2013-07-10 03:19:00,83.8,65.4,29.95,SSW,195,0.0,0.0,54,0.00,,---,0.00,VWS V14.00,2013-07-10 08:19:00,
2013-07-10 03:24:00,83.8,65.4,29.95,South,189,0.0,0.0,54,0.00,,---,0.00,VWS V14.00,2013-07-10 08:24:00,
2013-07-10 03:29:00,83.8,64.9,29.96,WSW,253,0.0,3.0,53,0.00,,---,0.00,VWS V14.00,2013-07-10 08:29:00,
2013-07-10 03:34:00,83.6,65.2,29.96,West,271,0.0,1.0,54,0.00,,---,0.00,VWS V14.00,2013-07-10 08:34:00,
2013-07-10 03:39:00,83.5,65.1,29.96,South,176,0.0,1.0,54,0.00,,---,0.00,VWS V14.00,2013-07-10 08:39:00,
2013-07-10 03:44:00,83.3,64.9,29.97,SSW,210,0.0,0.0,54,0.00,,---,0.00,VWS V14.00,2013-07-10 08:44:00,
2013-07-10 03:50:00,83.2,64.8,29.97,SSW,210,0.0,0.0,54,0.00,,---,0.00,VWS V14.00,2013-07-10 08:50:00,
2013-07-10 03:55:00,83.0,65.2,29.97,SSW,209,0.0,0.0,55,0.00,,---,0.00,VWS V14.00,2013-07-10 08:55:00,
2013-07-10 04:01:00,82.9,65.1,29.97,SW,214,0.0,1.0,55,0.00,,---,0.00,VWS V14.00,2013-07-10 09:01:00,
2013-07-10 04:06:00,82.8,65.5,29.97,SSE,165,0.0,5.0,56,0.00,,---,0.00,VWS V14.00,2013-07-10 09:06:00,
2013-07-10 04:11:00,82.8,65.0,29.97,West,275,0.0,0.0,55,0.00,,---,0.00,VWS V14.00,2013-07-10 09:11:00,
2013-07-10 04:16:00,82.9,65.1,29.97,West,275,0.0,0.0,55,0.00,,---,0.00,VWS V14.00,2013-07-10 09:16:00,
2013-07-10 04:22:00,83.1,65.3,29.97,West,275,0.0,0.0,55,0.00,,---,0.00,VWS V14.00,2013-07-10 09:22:00,
2013-07-10 04:27:00,83.0,65.2,29.97,SSW,200,0.0,0.0,55,0.00,,---,0.00,VWS V14.00,2013-07-10 09:27:00,
2013-07-10 04:32:00,82.8,65.5,29.97,SSW,200,0.0,0.0,56,0.00,,---,0.00,VWS V14.00,2013-07-10 09:32:00,
2013-07-10 04:37:00,82.7,65.4,29.97,SSW,200,0.0,0.0,56,0.00,,---,0.00,VWS V14.00,2013-07-10 09:37:00,
2013-07-10 04:42:00,82.5,65.2,29.97,SSW,200,0.0,0.0,56,0.00,,---,0.00,VWS V14.00,2013-07-10 09:42:00,
2013-07-10 04:48:00,82.5,65.2,29.98,SSW,200,0.0,0.0,56,0.00,,---,0.00,VWS V14.00,2013-07-10 09:48:00,
2013-07-10 04:53:00,82.5,65.2,29.98,SSW,200,0.0,0.0,56,0.00,,---,0.00,VWS V14.00,2013-07-10 09:53:00,
2013-07-10 04:58:00,82.5,65.2,29.98,SSW,200,0.0,0.0,56,0.00,,---,0.00,VWS V14.00,2013-07-10 09:58:00,
2013-07-10 05:04:00,82.5,65.2,29.98,SSW,200,0.0,0.0,56,0.00,,---,0.00,VWS V14.00,2013-07-10 10:04:00,
2013-07-10 05:09:00,82.5,65.2,29.98,SSW,200,0.0,0.0,56,0.00,,---,0.00,VWS V14.00,2013-07-10 10:09:00,
2013-07-10 05:14:00,82.5,65.2,29.98,SSW,200,0.0,0.0,56,0.00,,---,0.00,VWS V14.00,2013-07-10 10:14:00,
2013-07-10 05:19:00,82.5,65.2,29.98,SSW,200,0.0,0.0,56,0.00,,---,0.00,VWS V14.00,2013-07-10 10:19:00,
2013-07-10 05:24:00,82.5,65.2,29.98,SSW,200,0.0,0.0,56,0.00,,---,0.00,VWS V14.00,2013-07-10 10:24:00,
2013-07-10 05:29:00,82.5,65.2,29.97,SSW,200,0.0,0.0,56,0.00,,---,0.00,VWS V14.00,2013-07-10 10:29:00,
2013-07-10 05:34:00,82.5,65.2,29.97,SSW,200,0.0,0.0,56,0.00,,---,0.00,VWS V14.00,2013-07-10 10:34:00,
2013-07-10 05:40:00,82.5,65.2,29.97,SSW,200,0.0,0.0,56,0.00,,---,0.00,VWS V14.00,2013-07-10 10:40:00,
2013-07-10 05:45:00,82.5,65.2,29.97,SSW,200,0.0,0.0,56,0.00,,---,0.00,VWS V14.00,2013-07-10 10:45:00,
2013-07-10 05:50:00,82.5,65.2,29.97,SSW,200,0.0,0.0,56,0.00,,---,0.00,VWS V14.00,2013-07-10 10:50:00,
2013-07-10 05:55:00,82.5,65.2,29.97,SSW,200,0.0,0.0,56,0.00,,---,0.00,VWS V14.00,2013-07-10 10:55:00,
2013-07-10 06:00:00,82.5,65.2,29.97,SSW,200,0.0,0.0,56,0.00,,---,0.00,VWS V14.00,2013-07-10 11:00:00,
2013-07-10 06:05:00,82.5,65.2,29.97,SSW,200,0.0,0.0,56,0.00,,---,0.00,VWS V14.00,2013-07-10 11:05:00,
2013-07-10 06:11:00,82.5,65.2,29.97,SSW,200,0.0,0.0,56,0.00,,---,0.00,VWS V14.00,2013-07-10 11:11:00,
2013-07-10 06:17:00,82.5,65.2,29.97,SSW,200,0.0,0.0,56,0.00,,---,0.00,VWS V14.00,2013-07-10 11:17:00,
2013-07-10 06:22:00,82.5,65.2,29.97,SSW,200,0.0,0.0,56,0.00,,---,0.00,VWS V14.00,2013-07-10 11:22:00,
2013-07-10 06:27:00,82.5,65.2,29.97,SSW,200,0.0,0.0,56,0.00,,---,0.00,VWS V14.00,2013-07-10 11:27:00,
2013-07-10 06:32:00,82.5,65.2,29.97,SSW,200,0.0,0.0,56,0.00,,---,0.00,VWS V14.00,2013-07-10 11:32:00,
2013-07-10 06:37:00,82.5,65.2,29.97,SSW,200,0.0,0.0,56,0.00,,---,0.00,VWS V14.00,2013-07-10 11:37:00,
2013-07-10 06:42:00,82.5,65.2,29.97,SSW,200,0.0,0.0,56,0.00,,---,0.00,VWS V14.00,2013-07-10 11:42:00,
2013-07-10 06:48:00,82.5,65.2,29.97,SSW,200,0.0,0.0,56,0.00,,---,0.00,VWS V14.00,2013-07-10 11:48:00,
2013-07-10 06:54:00,82.5,65.2,29.97,SSW,200,0.0,0.0,56,0.00,,---,0.00,VWS V14.00,2013-07-10 11:54:00,
2013-07-10 06:59:00,82.5,65.2,29.96,SSW,200,0.0,0.0,56,0.00,,---,0.00,VWS V14.00,2013-07-10 11:59:00,
2013-07-10 07:05:00,82.5,65.2,29.96,SSW,200,0.0,0.0,56,0.00,,---,0.00,VWS V14.00,2013-07-10 12:05:00,
2013-07-10 07:10:00,82.5,65.2,29.96,SSW,200,0.0,0.0,56,0.00,,---,0.00,VWS V14.00,2013-07-10 12:10:00,
2013-07-10 07:16:00,82.5,65.2,29.97,SSW,200,0.0,0.0,56,0.00,,---,0.00,VWS V14.00,2013-07-10 12:16:00,
2013-07-10 07:22:00,82.5,65.2,29.97,SSW,200,0.0,0.0,56,0.00,,---,0.00,VWS V14.00,2013-07-10 12:22:00,
2013-07-10 07:28:00,82.5,65.2,29.97,SSW,200,0.0,0.0,56,0.00,,---,0.00,VWS V14.00,2013-07-10 12:28:00,
2013-07-10 07:34:00,82.5,65.2,29.97,SSW,200,0.0,0.0,56,0.00,,---,0.00,VWS V14.00,2013-07-10 12:34:00,
2013-07-10 07:40:00,80.3,67.0,29.97,SSW,197,0.0,1.0,64,0.00,,---,0.00,VWS V14.00,2013-07-10 12:40:00,
2013-07-10 07:45:00,80.3,67.0,29.97,SSW,194,0.0,0.0,64,0.00,,---,0.00,VWS V14.00,2013-07-10 12:45:00,
2013-07-10 07:51:00,80.5,67.2,29.97,SSW,194,0.0,0.0,64,0.00,,---,0.00,VWS V14.00,2013-07-10 12:51:00,
2013-07-10 07:56:00,80.7,66.9,29.97,South,184,3.0,5.0,63,0.00,,---,0.00,VWS V14.00,2013-07-10 12:56:00,
2013-07-10 08:02:00,80.8,66.6,29.97,South,188,0.0,0.0,62,0.00,,---,0.00,VWS V14.00,2013-07-10 13:02:00,
2013-07-10 08:07:00,81.0,66.8,29.97,South,187,3.0,5.0,62,0.00,,---,0.00,VWS V14.00,2013-07-10 13:07:00,
2013-07-10 08:12:00,81.3,67.1,29.97,South,173,0.0,0.0,62,0.00,,---,0.00,VWS V14.00,2013-07-10 13:12:00,
2013-07-10 08:17:00,81.3,67.1,29.97,South,176,2.0,5.0,62,0.00,,---,0.00,VWS V14.00,2013-07-10 13:17:00,
2013-07-10 08:22:00,81.4,67.1,29.97,South,175,0.0,0.0,62,0.00,,---,0.00,VWS V14.00,2013-07-10 13:22:00,
2013-07-10 08:27:00,81.7,67.4,29.98,South,175,0.0,3.0,62,0.00,,---,0.00,VWS V14.00,2013-07-10 13:27:00,
2013-07-10 08:33:00,81.8,67.1,29.98,SSW,211,0.0,0.0,61,0.00,,---,0.00,VWS V14.00,2013-07-10 13:33:00,
2013-07-10 08:38:00,82.1,66.8,29.98,South,186,1.0,5.0,60,0.00,,---,0.00,VWS V14.00,2013-07-10 13:38:00,
2013-07-10 08:44:00,82.3,67.5,29.98,WSW,247,0.0,4.0,61,0.00,,---,0.00,VWS V14.00,2013-07-10 13:44:00,
2013-07-10 08:50:00,82.9,68.1,29.98,WSW,247,0.0,0.0,61,0.00,,---,0.00,VWS V14.00,2013-07-10 13:50:00,
2013-07-10 08:55:00,83.4,67.6,29.98,West,264,4.0,6.0,59,0.00,,---,0.00,VWS V14.00,2013-07-10 13:55:00,
2013-07-10 09:00:00,83.5,67.7,29.98,West,265,0.0,4.0,59,0.00,,---,0.00,VWS V14.00,2013-07-10 14:00:00,
2013-07-10 09:05:00,83.9,67.6,29.98,SSW,196,3.0,3.0,58,0.00,,---,0.00,VWS V14.00,2013-07-10 14:05:00,
2013-07-10 09:10:00,83.8,67.5,29.98,South,186,4.0,4.0,58,0.00,,---,0.00,VWS V14.00,2013-07-10 14:10:00,
2013-07-10 09:16:00,83.9,67.6,29.98,SSW,211,0.0,0.0,58,0.00,,---,0.00,VWS V14.00,2013-07-10 14:16:00,
2013-07-10 09:22:00,84.5,68.1,29.98,SSW,201,0.0,1.0,58,0.00,,---,0.00,VWS V14.00,2013-07-10 14:22:00,
2013-07-10 09:27:00,84.9,68.0,29.98,SSE,168,3.0,3.0,57,0.00,,---,0.00,VWS V14.00,2013-07-10 14:27:00,
2013-07-10 09:32:00,85.0,67.6,29.98,SSW,203,0.0,1.0,56,0.00,,---,0.00,VWS V14.00,2013-07-10 14:32:00,
2013-07-10 09:38:00,85.1,67.7,29.98,South,181,3.0,6.0,56,0.00,,---,0.00,VWS V14.00,2013-07-10 14:38:00,
2013-07-10 09:43:00,85.5,68.0,29.98,SSW,200,1.0,4.0,56,0.00,,---,0.00,VWS V14.00,2013-07-10 14:43:00,
2013-07-10 09:48:00,86.0,68.0,29.98,SSW,197,2.0,2.0,55,0.00,,---,0.00,VWS V14.00,2013-07-10 14:48:00,
2013-07-10 09:54:00,86.5,67.9,29.98,SSW,203,0.0,0.0,54,0.00,,---,0.00,VWS V14.00,2013-07-10 14:54:00,
2013-07-10 09:59:00,87.0,68.4,29.98,South,176,2.0,6.0,54,0.00,,---,0.00,VWS V14.00,2013-07-10 14:59:00,
2013-07-10 10:05:00,87.2,68.5,29.98,SSW,195,0.0,0.0,54,0.00,,---,0.00,VWS V14.00,2013-07-10 15:05:00,
2013-07-10 10:10:00,87.7,67.9,29.98,SW,226,4.0,5.0,52,0.00,,---,0.00,VWS V14.00,2013-07-10 15:10:00,
2013-07-10 10:15:00,87.9,68.7,29.97,South,179,4.0,4.0,53,0.00,,---,0.00,VWS V14.00,2013-07-10 15:15:00,
2013-07-10 10:21:00,88.5,68.6,29.97,WSW,240,0.0,0.0,52,0.00,,---,0.00,VWS V14.00,2013-07-10 15:21:00,
2013-07-10 10:26:00,89.1,68.1,29.97,WNW,288,0.0,5.0,50,0.00,,---,0.00,VWS V14.00,2013-07-10 15:26:00,
2013-07-10 10:31:00,89.7,68.6,29.97,SSW,210,2.0,6.0,50,0.00,,---,0.00,VWS V14.00,2013-07-10 15:31:00,
2013-07-10 10:36:00,90.1,68.4,29.97,WNW,287,4.0,6.0,49,0.00,,---,0.00,VWS V14.00,2013-07-10 15:36:00,
2013-07-10 10:41:00,90.6,68.8,29.97,WSW,237,2.0,11.0,49,0.00,,---,0.00,VWS V14.00,2013-07-10 15:41:00,
2013-07-10 10:47:00,90.6,68.2,29.96,South,189,2.0,4.0,48,0.00,,---,0.00,VWS V14.00,2013-07-10 15:47:00,
2013-07-10 10:52:00,91.0,68.6,29.96,WNW,285,2.0,6.0,48,0.00,,---,0.00,VWS V14.00,2013-07-10 15:52:00,
2013-07-10 10:58:00,91.5,69.1,29.97,SSW,211,0.0,4.0,48,0.00,,---,0.00,VWS V14.00,2013-07-10 15:58:00,
2013-07-10 11:03:00,91.8,68.1,29.97,SW,236,0.0,4.0,46,0.00,,---,0.00,VWS V14.00,2013-07-10 16:03:00,
2013-07-10 11:08:00,92.3,69.8,29.97,SW,236,0.0,0.0,48,0.00,,---,0.00,VWS V14.00,2013-07-10 16:08:00,
2013-07-10 11:13:00,93.0,68.5,29.98,South,181,0.0,2.0,45,0.00,,---,0.00,VWS V14.00,2013-07-10 16:13:00,
2013-07-10 11:18:00,93.3,70.1,29.98,South,180,0.0,1.0,47,0.00,,---,0.00,VWS V14.00,2013-07-10 16:18:00,
2013-07-10 11:24:00,93.4,68.2,29.98,South,186,0.0,2.0,44,0.00,,---,0.00,VWS V14.00,2013-07-10 16:24:00,
2013-07-10 11:29:00,93.1,68.6,29.98,SSW,203,0.0,0.0,45,0.00,,---,0.00,VWS V14.00,2013-07-10 16:29:00,
2013-07-10 11:34:00,92.9,69.1,29.98,SSW,203,0.0,0.0,46,0.00,,---,0.00,VWS V14.00,2013-07-10 16:34:00,
2013-07-10 11:39:00,92.9,68.4,29.98,West,261,0.0,1.0,45,0.00,,---,0.00,VWS V14.00,2013-07-10 16:39:00,
2013-07-10 11:45:00,93.2,68.1,29.97,West,265,0.0,0.0,44,0.00,,---,0.00,VWS V14.00,2013-07-10 16:45:00,
2013-07-10 11:50:00,93.7,68.5,29.97,West,278,3.0,9.0,44,0.00,,---,0.00,VWS V14.00,2013-07-10 16:50:00,
2013-07-10 11:55:00,94.4,69.1,29.97,NNW,333,0.0,1.0,44,0.00,,---,0.00,VWS V14.00,2013-07-10 16:55:00,
2013-07-10 12:00:00,95.8,69.7,29.97,NW,321,0.0,2.0,43,0.00,,---,0.00,VWS V14.00,2013-07-10 17:00:00,
2013-07-10 12:06:00,96.0,69.9,29.97,NW,319,0.0,0.0,43,0.00,,---,0.00,VWS V14.00,2013-07-10 17:06:00,
2013-07-10 12:12:00,95.5,68.1,29.97,West,266,0.0,3.0,41,0.00,,---,0.00,VWS V14.00,2013-07-10 17:12:00,
2013-07-10 12:17:00,96.0,69.2,29.98,West,266,0.0,0.0,42,0.00,,---,0.00,VWS V14.00,2013-07-10 17:17:00,
2013-07-10 12:22:00,97.0,70.8,29.98,NW,309,0.0,0.0,43,0.00,,---,0.00,VWS V14.00,2013-07-10 17:22:00,
2013-07-10 12:27:00,97.7,69.3,29.97,SE,135,0.0,4.0,40,0.00,,---,0.00,VWS V14.00,2013-07-10 17:27:00,
2013-07-10 12:33:00,97.0,68.7,29.97,WSW,255,0.0,5.0,40,0.00,,---,0.00,VWS V14.00,2013-07-10 17:33:00,
2013-07-10 12:38:00,96.6,68.3,29.97,West,262,0.0,1.0,40,0.00,,---,0.00,VWS V14.00,2013-07-10 17:38:00,
2013-07-10 12:43:00,97.2,68.1,29.97,West,261,0.0,0.0,39,0.00,,---,0.00,VWS V14.00,2013-07-10 17:43:00,
2013-07-10 12:49:00,98.0,69.6,29.97,WSW,250,0.0,1.0,40,0.00,,---,0.00,VWS V14.00,2013-07-10 17:49:00,
2013-07-10 12:55:00,98.2,69.0,29.97,West,269,0.0,0.0,39,0.00,,---,0.00,VWS V14.00,2013-07-10 17:55:00,
2013-07-10 13:01:00,98.3,68.3,29.97,West,266,0.0,0.0,38,0.00,,---,0.00,VWS V14.00,2013-07-10 18:01:00,
2013-07-10 13:06:00,98.6,69.4,29.97,West,263,0.0,6.0,39,0.00,,---,0.00,VWS V14.00,2013-07-10 18:06:00,
2013-07-10 13:11:00,99.5,69.4,29.97,West,274,0.0,1.0,38,0.00,,---,0.00,VWS V14.00,2013-07-10 18:11:00,
2013-07-10 13:16:00,100.4,69.4,29.97,SW,230,5.0,5.0,37,0.00,,---,0.00,VWS V14.00,2013-07-10 18:16:00,
2013-07-10 13:21:00,98.7,69.5,29.97,West,280,0.0,0.0,39,0.00,,---,0.00,VWS V14.00,2013-07-10 18:21:00,
2013-07-10 13:27:00,99.6,69.5,29.97,West,280,0.0,0.0,38,0.00,,---,0.00,VWS V14.00,2013-07-10 18:27:00,
2013-07-10 13:32:00,100.0,69.1,29.96,West,280,0.0,0.0,37,0.00,,---,0.00,VWS V14.00,2013-07-10 18:32:00,
2013-07-10 13:38:00,99.0,70.5,29.96,West,268,0.0,1.0,40,0.00,,---,0.00,VWS V14.00,2013-07-10 18:38:00,
2013-07-10 13:43:00,99.2,69.2,29.96,NNW,338,0.0,0.0,38,0.00,,---,0.00,VWS V14.00,2013-07-10 18:43:00,
2013-07-10 13:49:00,98.5,68.5,29.96,WSW,255,0.0,0.0,38,0.00,,---,0.00,VWS V14.00,2013-07-10 18:49:00,
2013-07-10 13:54:00,98.8,69.6,29.96,WSW,255,2.0,2.0,39,0.00,,---,0.00,VWS V14.00,2013-07-10 18:54:00,
2013-07-10 13:59:00,98.4,69.2,29.95,West,269,0.0,4.0,39,0.00,,---,0.00,VWS V14.00,2013-07-10 18:59:00,
2013-07-10 14:04:00,98.0,70.3,29.95,WNW,285,0.0,2.0,41,0.00,,---,0.00,VWS V14.00,2013-07-10 19:04:00,
2013-07-10 14:09:00,98.4,69.2,29.95,WNW,287,0.0,0.0,39,0.00,,---,0.00,VWS V14.00,2013-07-10 19:09:00,
2013-07-10 14:14:00,98.9,70.4,29.95,WSW,247,0.0,0.0,40,0.00,,---,0.00,VWS V14.00,2013-07-10 19:14:00,
2013-07-10 14:19:00,99.2,68.4,29.95,WSW,255,0.0,0.0,37,0.00,,---,0.00,VWS V14.00,2013-07-10 19:19:00,
2013-07-10 14:24:00,100.1,70.7,29.95,WSW,255,0.0,0.0,39,0.00,,---,0.00,VWS V14.00,2013-07-10 19:24:00,
2013-07-10 14:30:00,99.9,69.0,29.95,WSW,247,1.0,6.0,37,0.00,,---,0.00,VWS V14.00,2013-07-10 19:30:00,
2013-07-10 14:36:00,98.1,70.4,29.95,West,259,3.0,5.0,41,0.00,,---,0.00,VWS V14.00,2013-07-10 19:36:00,
2013-07-10 14:42:00,97.7,69.3,29.95,West,263,0.0,0.0,40,0.00,,---,0.00,VWS V14.00,2013-07-10 19:42:00,
2013-07-10 14:47:00,98.1,69.7,29.95,West,263,0.0,0.0,40,0.00,,---,0.00,VWS V14.00,2013-07-10 19:47:00,
2013-07-10 14:53:00,99.4,69.3,29.95,West,263,0.0,5.0,38,0.00,,---,0.00,VWS V14.00,2013-07-10 19:53:00,
2013-07-10 14:58:00,98.4,69.9,29.95,West,264,2.0,5.0,40,0.00,,---,0.00,VWS V14.00,2013-07-10 19:58:00,
2013-07-10 15:03:00,99.5,70.9,29.95,West,264,0.0,0.0,40,0.00,,---,0.00,VWS V14.00,2013-07-10 20:03:00,
2013-07-10 15:08:00,100.1,69.9,29.95,West,264,0.0,0.0,38,0.00,,---,0.00,VWS V14.00,2013-07-10 20:08:00,
2013-07-10 15:13:00,99.5,70.2,29.94,WSW,250,0.0,0.0,39,0.00,,---,0.00,VWS V14.00,2013-07-10 20:13:00,
2013-07-10 15:18:00,100.3,69.3,29.94,WSW,255,0.0,5.0,37,0.00,,---,0.00,VWS V14.00,2013-07-10 20:18:00,
2013-07-10 15:23:00,99.4,69.3,29.94,West,262,1.0,9.0,38,0.00,,---,0.00,VWS V14.00,2013-07-10 20:23:00,
2013-07-10 15:24:00,99.0,69.0,29.94,West,262,5.0,5.0,38,0.00,,---,0.00,VWS V14.00,2013-07-10 20:24:00,
2013-07-10 15:29:00,98.2,69.8,29.94,West,262,0.0,3.0,40,0.00,,---,0.00,VWS V14.00,2013-07-10 20:29:00,
2013-07-10 15:34:00,98.8,69.6,29.94,WNW,283,0.0,10.0,39,0.00,,---,0.00,VWS V14.00,2013-07-10 20:34:00,
2013-07-10 15:40:00,99.2,69.9,29.94,NNW,336,0.0,0.0,39,0.00,,---,0.00,VWS V14.00,2013-07-10 20:40:00,
2013-07-10 15:45:00,99.5,70.2,29.94,North,0,0.0,0.0,39,0.00,,---,0.00,VWS V14.00,2013-07-10 20:45:00,
2013-07-10 15:51:00,99.8,68.9,29.94,West,269,0.0,6.0,37,0.00,,---,0.00,VWS V14.00,2013-07-10 20:51:00,
2013-07-10 15:56:00,99.7,69.6,29.94,West,266,0.0,1.0,38,0.00,,---,0.00,VWS V14.00,2013-07-10 20:56:00,
2013-07-10 16:01:00,99.1,69.8,29.94,West,278,0.0,4.0,39,0.00,,---,0.00,VWS V14.00,2013-07-10 21:01:00,
2013-07-10 16:06:00,99.4,69.3,29.94,West,274,1.0,3.0,38,0.00,,---,0.00,VWS V14.00,2013-07-10 21:06:00,
2013-07-10 16:11:00,99.7,68.8,29.94,WSW,248,5.0,8.0,37,0.00,,---,0.00,VWS V14.00,2013-07-10 21:11:00,
2013-07-10 16:16:00,100.0,69.1,29.93,West,279,0.0,0.0,37,0.00,,---,0.00,VWS V14.00,2013-07-10 21:16:00,
2013-07-10 16:22:00,100.2,67.6,29.93,SSE,167,1.0,2.0,35,0.00,,---,0.00,VWS V14.00,2013-07-10 21:22:00,
2013-07-10 16:27:00,100.5,67.9,29.93,West,269,6.0,6.0,35,0.00,,---,0.00,VWS V14.00,2013-07-10 21:27:00,
2013-07-10 16:32:00,100.2,68.4,29.92,SSW,202,0.0,0.0,36,0.00,,---,0.00,VWS V14.00,2013-07-10 21:32:00,
2013-07-10 16:38:00,100.5,68.7,29.92,WNW,299,0.0,0.0,36,0.00,,---,0.00,VWS V14.00,2013-07-10 21:38:00,
2013-07-10 16:43:00,101.0,68.3,29.92,WNW,287,1.0,1.0,35,0.00,,---,0.00,VWS V14.00,2013-07-10 21:43:00,
2013-07-10 16:48:00,100.5,67.1,29.92,WNW,287,0.0,0.0,34,0.00,,---,0.00,VWS V14.00,2013-07-10 21:48:00,
2013-07-10 16:53:00,100.8,67.3,29.92,NW,315,0.0,0.0,34,0.00,,---,0.00,VWS V14.00,2013-07-10 21:53:00,
2013-07-10 16:58:00,101.6,68.0,29.91,North,1,0.0,1.0,34,0.00,,---,0.00,VWS V14.00,2013-07-10 21:58:00,
2013-07-10 17:03:00,100.9,67.4,29.91,West,266,0.0,3.0,34,0.00,,---,0.00,VWS V14.00,2013-07-10 22:03:00,
2013-07-10 17:09:00,100.9,68.2,29.91,West,266,0.0,0.0,35,0.00,,---,0.00,VWS V14.00,2013-07-10 22:09:00,
2013-07-10 17:15:00,101.8,68.2,29.91,West,281,0.0,1.0,34,0.00,,---,0.00,VWS V14.00,2013-07-10 22:15:00,
2013-07-10 17:20:00,101.9,67.4,29.91,SSW,203,0.0,1.0,33,0.00,,---,0.00,VWS V14.00,2013-07-10 22:20:00,
2013-07-10 17:25:00,101.4,67.0,29.91,West,273,0.0,0.0,33,0.00,,---,0.00,VWS V14.00,2013-07-10 22:25:00,
2013-07-10 17:30:00,101.4,67.0,29.91,SW,236,0.0,0.0,33,0.00,,---,0.00,VWS V14.00,2013-07-10 22:30:00,
2013-07-10 17:35:00,100.7,67.2,29.91,South,191,0.0,0.0,34,0.00,,---,0.00,VWS V14.00,2013-07-10 22:35:00,
2013-07-10 17:40:00,100.6,66.3,29.91,West,278,0.0,2.0,33,0.00,,---,0.00,VWS V14.00,2013-07-10 22:40:00,
2013-07-10 17:45:00,100.2,65.9,29.91,West,266,0.0,6.0,33,0.00,,---,0.00,VWS V14.00,2013-07-10 22:45:00,
2013-07-10 17:50:00,99.6,67.1,29.91,West,263,0.0,2.0,35,0.00,,---,0.00,VWS V14.00,2013-07-10 22:50:00,
2013-07-10 17:56:00,99.7,68.8,29.91,West,277,2.0,4.0,37,0.00,,---,0.00,VWS V14.00,2013-07-10 22:56:00,
2013-07-10 18:01:00,100.0,68.3,29.91,WNW,290,0.0,0.0,36,0.00,,---,0.00,VWS V14.00,2013-07-10 23:01:00,
2013-07-10 18:07:00,100.9,69.1,29.91,WNW,285,0.0,0.0,36,0.00,,---,0.00,VWS V14.00,2013-07-10 23:07:00,
2013-07-10 18:13:00,101.7,69.8,29.90,WSW,247,0.0,0.0,36,0.00,,---,0.00,VWS V14.00,2013-07-10 23:13:00,
2013-07-10 18:18:00,101.2,68.5,29.90,West,260,1.0,3.0,35,0.00,,---,0.00,VWS V14.00,2013-07-10 23:18:00,
2013-07-10 18:23:00,99.6,67.1,29.90,West,271,0.0,4.0,35,0.00,,---,0.00,VWS V14.00,2013-07-10 23:23:00,
2013-07-10 18:29:00,98.5,68.5,29.90,West,266,0.0,1.0,38,0.00,,---,0.00,VWS V14.00,2013-07-10 23:29:00,
2013-07-10 18:34:00,98.0,67.3,29.90,WSW,255,2.0,7.0,37,0.00,,---,0.00,VWS V14.00,2013-07-10 23:34:00,
2013-07-10 18:39:00,97.3,67.5,29.90,West,259,0.0,2.0,38,0.00,,---,0.00,VWS V14.00,2013-07-10 23:39:00,
2013-07-10 18:44:00,97.0,67.2,29.90,WSW,239,4.0,4.0,38,0.00,,---,0.00,VWS V14.00,2013-07-10 23:44:00,
2013-07-10 18:49:00,96.6,67.6,29.90,West,259,2.0,5.0,39,0.00,,---,0.00,VWS V14.00,2013-07-10 23:49:00,
2013-07-10 18:54:00,96.4,66.7,29.90,WNW,298,0.0,0.0,38,0.00,,---,0.00,VWS V14.00,2013-07-10 23:54:00,
2013-07-10 19:00:00,96.3,67.3,29.89,WSW,255,0.0,0.0,39,0.00,,---,0.00,VWS V14.00,2013-07-11 00:00:00,
2013-07-10 19:05:00,96.3,68.1,29.89,West,264,0.0,1.0,40,0.00,,---,0.00,VWS V14.00,2013-07-11 00:05:00,
2013-07-10 19:11:00,95.8,68.3,29.89,West,264,0.0,0.0,41,0.00,,---,0.00,VWS V14.00,2013-07-11 00:11:00,
2013-07-10 19:17:00,95.5,68.8,29.89,West,263,0.0,0.0,42,0.00,,---,0.00,VWS V14.00,2013-07-11 00:17:00,
2013-07-10 19:23:00,95.0,69.0,29.89,West,263,0.0,0.0,43,0.00,,---,0.00,VWS V14.00,2013-07-11 00:23:00,
2013-07-10 19:29:00,94.1,69.5,29.89,SW,215,0.0,0.0,45,0.00,,---,0.00,VWS V14.00,2013-07-11 00:29:00,
2013-07-10 19:34:00,93.2,70.0,29.89,WSW,250,0.0,6.0,47,0.00,,---,0.00,VWS V14.00,2013-07-11 00:34:00,
2013-07-10 19:39:00,92.7,70.2,29.89,WSW,250,0.0,0.0,48,0.00,,---,0.00,VWS V14.00,2013-07-11 00:39:00,
2013-07-10 19:45:00,92.6,70.1,29.90,WSW,245,0.0,3.0,48,0.00,,---,0.00,VWS V14.00,2013-07-11 00:45:00,
2013-07-10 19:51:00,92.3,70.4,29.90,West,266,0.0,1.0,49,0.00,,---,0.00,VWS V14.00,2013-07-11 00:51:00,
2013-07-10 19:56:00,92.0,70.1,29.90,West,265,0.0,0.0,49,0.00,,---,0.00,VWS V14.00,2013-07-11 00:56:00,
2013-07-10 20:02:00,91.9,70.6,29.90,West,266,0.0,0.0,50,0.00,,---,0.00,VWS V14.00,2013-07-11 01:02:00,
2013-07-10 20:07:00,91.7,70.4,29.90,West,265,0.0,0.0,50,0.00,,---,0.00,VWS V14.00,2013-07-11 01:07:00,
2013-07-10 20:12:00,91.7,71.0,29.90,West,266,0.0,0.0,51,0.00,,---,0.00,VWS V14.00,2013-07-11 01:12:00,
2013-07-10 20:17:00,91.5,70.8,29.90,West,265,0.0,0.0,51,0.00,,---,0.00,VWS V14.00,2013-07-11 01:17:00,
2013-07-10 20:23:00,91.1,71.0,29.90,West,265,0.0,0.0,52,0.00,,---,0.00,VWS V14.00,2013-07-11 01:23:00,
2013-07-10 20:28:00,91.1,71.6,29.91,West,266,0.0,0.0,53,0.00,,---,0.00,VWS V14.00,2013-07-11 01:28:00,
2013-07-10 20:34:00,91.2,71.1,29.91,West,265,0.0,0.0,52,0.00,,---,0.00,VWS V14.00,2013-07-11 01:34:00,
2013-07-10 20:40:00,91.3,71.8,29.91,West,265,0.0,0.0,53,0.00,,---,0.00,VWS V14.00,2013-07-11 01:40:00,
2013-07-10 20:45:00,91.4,71.3,29.91,West,265,0.0,0.0,52,0.00,,---,0.00,VWS V14.00,2013-07-11 01:45:00,
2013-07-10 20:51:00,91.3,71.2,29.91,West,265,0.0,0.0,52,0.00,,---,0.00,VWS V14.00,2013-07-11 01:51:00,
2013-07-10 20:57:00,90.8,71.3,29.91,West,265,0.0,0.0,53,0.00,,---,0.00,VWS V14.00,2013-07-11 01:57:00,
2013-07-10 21:03:00,89.9,71.6,29.91,West,265,0.0,0.0,55,0.00,,---,0.00,VWS V14.00,2013-07-11 02:03:00,
2013-07-10 21:08:00,89.3,72.1,29.91,West,265,0.0,0.0,57,0.00,,---,0.00,VWS V14.00,2013-07-11 02:08:00,
2013-07-10 21:14:00,89.3,72.1,29.91,West,265,0.0,0.0,57,0.00,,---,0.00,VWS V14.00,2013-07-11 02:14:00,
2013-07-10 21:20:00,89.0,71.8,29.91,West,265,0.0,0.0,57,0.00,,---,0.00,VWS V14.00,2013-07-11 02:20:00,
2013-07-10 21:26:00,88.8,72.1,29.91,West,265,0.0,0.0,58,0.00,,---,0.00,VWS V14.00,2013-07-11 02:26:00,
2013-07-10 21:31:00,88.5,71.8,29.91,West,266,0.0,0.0,58,0.00,,---,0.00,VWS V14.00,2013-07-11 02:31:00,
2013-07-10 21:36:00,88.2,72.1,29.91,West,265,0.0,0.0,59,0.00,,---,0.00,VWS V14.00,2013-07-11 02:36:00,
2013-07-10 21:42:00,87.9,72.3,29.91,West,265,0.0,0.0,60,0.00,,---,0.00,VWS V14.00,2013-07-11 02:42:00,
2013-07-10 21:47:00,87.7,72.1,29.92,West,265,0.0,0.0,60,0.00,,---,0.00,VWS V14.00,2013-07-11 02:47:00,
2013-07-10 21:52:00,87.6,72.5,29.92,West,265,0.0,0.0,61,0.00,,---,0.00,VWS V14.00,2013-07-11 02:52:00,
2013-07-10 21:58:00,87.7,72.6,29.93,West,265,0.0,0.0,61,0.00,,---,0.00,VWS V14.00,2013-07-11 02:58:00,
2013-07-10 22:03:00,87.5,72.4,29.93,West,266,0.0,0.0,61,0.00,,---,0.00,VWS V14.00,2013-07-11 03:03:00,
2013-07-10 22:09:00,87.6,72.5,29.93,West,265,0.0,0.0,61,0.00,,---,0.00,VWS V14.00,2013-07-11 03:09:00,
2013-07-10 22:14:00,87.7,72.6,29.93,West,265,0.0,0.0,61,0.00,,---,0.00,VWS V14.00,2013-07-11 03:14:00,
2013-07-10 22:19:00,87.4,72.3,29.93,West,266,0.0,0.0,61,0.00,,---,0.00,VWS V14.00,2013-07-11 03:19:00,
2013-07-10 22:24:00,87.0,72.4,29.93,West,265,0.0,0.0,62,0.00,,---,0.00,VWS V14.00,2013-07-11 03:24:00,
2013-07-10 22:29:00,86.8,72.2,29.94,West,265,0.0,0.0,62,0.00,,---,0.00,VWS V14.00,2013-07-11 03:29:00,
2013-07-10 22:34:00,86.8,72.7,29.94,West,266,0.0,0.0,63,0.00,,---,0.00,VWS V14.00,2013-07-11 03:34:00,
2013-07-10 22:40:00,87.2,72.6,29.94,West,266,0.0,0.0,62,0.00,,---,0.00,VWS V14.00,2013-07-11 03:40:00,
2013-07-10 22:46:00,87.5,72.9,29.94,West,265,0.0,0.0,62,0.00,,---,0.00,VWS V14.00,2013-07-11 03:46:00,
2013-07-10 22:51:00,87.5,72.9,29.94,West,265,0.0,0.0,62,0.00,,---,0.00,VWS V14.00,2013-07-11 03:51:00,
2013-07-10 22:56:00,87.3,72.7,29.94,West,266,0.0,0.0,62,0.00,,---,0.00,VWS V14.00,2013-07-11 03:56:00,
2013-07-10 23:01:00,86.9,72.8,29.94,West,265,0.0,0.0,63,0.00,,---,0.00,VWS V14.00,2013-07-11 04:01:00,
2013-07-10 23:02:00,86.8,72.7,29.94,West,265,0.0,0.0,63,0.00,,---,0.00,VWS V14.00,2013-07-11 04:02:00,
2013-07-10 23:03:00,86.7,72.6,29.94,West,265,0.0,0.0,63,0.00,,---,0.00,VWS V14.00,2013-07-11 04:03:00,
2013-07-10 23:04:00,86.6,72.5,29.94,West,265,0.0,0.0,63,0.00,,---,0.00,VWS V14.00,2013-07-11 04:04:00,
2013-07-10 23:05:00,86.5,72.4,29.94,West,266,0.0,0.0,63,0.00,,---,0.00,VWS V14.00,2013-07-11 04:05:00,
2013-07-10 23:09:00,86.2,72.6,29.94,West,266,0.0,0.0,64,0.00,,---,0.00,VWS V14.00,2013-07-11 04:09:00,
2013-07-10 23:14:00,85.7,72.6,29.95,West,266,0.0,0.0,65,0.00,,---,0.00,VWS V14.00,2013-07-11 04:14:00,
2013-07-10 23:19:00,85.6,72.5,29.95,West,265,0.0,0.0,65,0.00,,---,0.00,VWS V14.00,2013-07-11 04:19:00,
2013-07-10 23:24:00,85.8,72.7,29.95,West,265,0.0,0.0,65,0.00,,---,0.00,VWS V14.00,2013-07-11 04:24:00,
2013-07-10 23:29:00,86.2,73.1,29.94,West,265,0.0,0.0,65,0.00,,---,0.00,VWS V14.00,2013-07-11 04:29:00,
2013-07-10 23:35:00,86.3,72.7,29.94,West,265,0.0,0.0,64,0.00,,---,0.00,VWS V14.00,2013-07-11 04:35:00,
2013-07-10 23:41:00,85.9,72.8,29.94,West,265,0.0,0.0,65,0.00,,---,0.00,VWS V14.00,2013-07-11 04:41:00,
2013-07-10 23:46:00,85.4,72.8,29.93,West,265,0.0,0.0,66,0.00,,---,0.00,VWS V14.00,2013-07-11 04:46:00,
2013-07-10 23:51:00,85.1,72.9,29.93,West,265,0.0,0.0,67,0.00,,---,0.00,VWS V14.00,2013-07-11 04:51:00,
2013-07-10 23:57:00,84.8,73.1,29.93,West,265,0.0,0.0,68,0.00,,---,0.00,VWS V14.00,2013-07-11 04:57:00,